Time;durP1;ratioP1;P1;durP2;ratioP2;P2;SDS_P1;SDS_P2;PMS_P1;PMS_P2;Temp;Humidity;BMP_temperature;BMP_pressure;BME280_temperature;BME280_humidity;BME280_pressure;Samples;Min_cycle;Max_cycle;Signal;HPM_P1;HPM_P2
2022/01/06 00:01:55;;;;;;;7.07;3.13;;;7.50;99.90;;;;;;4173873;28;20531;-54
2022/01/06 00:03:56;;;;;;;4.63;2.50;;;7.50;99.90;;;;;;4175041;28;20049;-53
2022/01/06 00:06:03;;;;;;;3.93;2.03;;;7.50;99.90;;;;;;4173822;28;20029;-55
2022/01/06 00:08:04;;;;;;;3.37;1.80;;;7.50;99.90;;;;;;4174472;28;20032;-51
2022/01/06 00:10:11;;;;;;;5.07;2.97;;;7.50;99.90;;;;;;4173631;28;20029;-53
2022/01/06 00:12:15;;;;;;;3.63;1.70;;;7.40;99.90;;;;;;4174075;28;20111;-55
2022/01/06 00:14:35;;;;;;;2.47;1.43;;;7.40;99.90;;;;;;4174007;28;20113;-54
2022/01/06 00:16:59;;;;;;;5.32;2.50;;;7.40;99.90;;;;;;4174600;28;20057;-55
2022/01/06 00:23:38;;;;;;;5.83;2.73;;;7.50;99.90;;;;;;4174071;28;20056;-54
2022/01/06 00:25:39;;;;;;;5.13;2.67;;;7.50;99.90;;;;;;4175048;28;20037;-51
2022/01/06 00:27:40;;;;;;;32.87;13.37;;;7.40;99.90;;;;;;4173859;28;20497;-57
2022/01/06 00:29:42;;;;;;;13.47;6.17;;;7.40;99.90;;;;;;4173867;28;20100;-55
2022/01/06 00:31:43;;;;;;;10.43;5.87;;;7.40;99.90;;;;;;4173863;28;20088;-51
2022/01/06 00:33:45;;;;;;;20.77;7.97;;;7.50;99.90;;;;;;4174305;28;20485;-58
2022/01/06 00:35:46;;;;;;;10.33;5.17;;;7.50;99.90;;;;;;4174171;28;20087;-58
2022/01/06 00:37:47;;;;;;;8.93;5.20;;;7.50;99.90;;;;;;4173533;28;20485;-54
2022/01/06 00:39:48;;;;;;;19.73;7.83;;;7.40;99.90;;;;;;4174384;28;20044;-54
2022/01/06 00:41:49;;;;;;;31.63;12.63;;;7.50;99.90;;;;;;4173478;28;20037;-57
2022/01/06 00:43:50;;;;;;;30.00;11.97;;;7.40;99.90;;;;;;4174402;28;20029;-61
2022/01/06 00:45:51;;;;;;;24.97;10.60;;;7.40;99.90;;;;;;4173236;28;20908;-51
2022/01/06 00:47:52;;;;;;;14.20;6.67;;;7.40;99.90;;;;;;4175012;28;20432;-57
2022/01/06 00:49:53;;;;;;;27.93;13.07;;;7.30;99.90;;;;;;4190022;28;20451;-55
2022/01/06 00:51:55;;;;;;;20.13;9.47;;;7.30;99.90;;;;;;4190914;28;20094;-56
2022/01/06 00:53:56;;;;;;;22.53;10.27;;;7.30;99.90;;;;;;4189578;28;20833;-57
2022/01/06 00:55:57;;;;;;;19.13;8.33;;;7.30;99.90;;;;;;4191047;28;20090;-55
2022/01/06 00:57:59;;;;;;;19.93;8.40;;;7.30;99.90;;;;;;4189775;28;20035;-52
2022/01/06 01:00:00;;;;;;;12.90;6.30;;;7.20;99.90;;;;;;4190374;28;20070;-53
2022/01/06 01:02:01;;;;;;;25.77;10.13;;;7.20;99.90;;;;;;4189827;28;20086;-53
2022/01/06 01:04:02;;;;;;;25.73;10.47;;;7.20;99.90;;;;;;4189798;28;20542;-51
2022/01/06 01:06:03;;;;;;;44.53;17.33;;;7.20;99.90;;;;;;4190147;28;20447;-55
2022/01/06 01:08:05;;;;;;;38.63;13.03;;;7.20;99.90;;;;;;4189585;28;20078;-51
2022/01/06 01:10:06;;;;;;;32.97;12.17;;;7.20;99.90;;;;;;4190709;28;20139;-49
2022/01/06 01:12:08;;;;;;;9.77;5.13;;;7.20;99.90;;;;;;4189538;28;20032;-56
2022/01/06 01:14:25;;;;;;;14.70;5.93;;;7.20;99.90;;;;;;4190916;28;20044;-53
2022/01/06 01:16:31;;;;;;;20.17;7.20;;;7.20;99.90;;;;;;4189562;28;20432;-54
2022/01/06 01:18:32;;;;;;;31.27;12.00;;;7.20;99.90;;;;;;4190646;28;20090;-57
2022/01/06 01:20:33;;;;;;;72.07;27.67;;;7.20;99.90;;;;;;4188992;28;20048;-52
2022/01/06 01:22:34;;;;;;;113.07;38.77;;;7.30;99.90;;;;;;4190476;28;20489;-55
2022/01/06 01:24:36;;;;;;;183.00;59.77;;;7.20;99.90;;;;;;4189071;28;20104;-55
2022/01/06 01:26:37;;;;;;;47.03;18.23;;;7.20;99.90;;;;;;4190157;28;20052;-54
2022/01/06 01:28:44;;;;;;;54.47;20.43;;;7.20;99.90;;;;;;4188437;28;20506;-49
2022/01/06 01:31:12;;;;;;;47.63;20.03;;;7.30;99.90;;;;;;4190417;28;20086;-51
2022/01/06 01:33:16;;;;;;;38.47;16.57;;;7.40;99.90;;;;;;4189345;28;20070;-51
2022/01/06 01:35:17;;;;;;;30.37;14.73;;;7.40;99.90;;;;;;4190602;28;20032;-56
2022/01/06 01:37:19;;;;;;;27.93;14.70;;;7.40;99.90;;;;;;4189015;28;20037;-53
2022/01/06 01:39:20;;;;;;;189.80;102.00;;;7.50;99.90;;;;;;4190448;28;20041;-55
2022/01/06 01:41:21;;;;;;;67.60;38.37;;;7.40;99.90;;;;;;4189898;28;20373;-53
2022/01/06 01:43:22;;;;;;;35.87;18.67;;;7.40;99.90;;;;;;4190043;28;20045;-50
2022/01/06 01:45:28;;;;;;;57.10;33.60;;;7.40;99.90;;;;;;4189135;28;20017;-50
2022/01/06 01:49:48;;;;;;;18.90;14.50;;;7.20;99.90;;;;;;4189063;28;20025;-52
2022/01/06 01:51:49;;;;;;;17.77;14.47;;;7.20;99.90;;;;;;4189965;28;20557;-56
2022/01/06 01:53:51;;;;;;;16.90;12.67;;;7.20;99.90;;;;;;4189834;28;20021;-60
2022/01/06 01:55:52;;;;;;;12.27;9.20;;;7.10;99.90;;;;;;4189776;28;20539;-54
2022/01/06 01:57:54;;;;;;;9.47;7.33;;;7.10;99.90;;;;;;4188240;28;20385;-55
2022/01/06 01:59:55;;;;;;;7.03;4.70;;;7.10;99.90;;;;;;4188667;28;20495;-54
2022/01/06 02:01:56;;;;;;;5.43;4.60;;;7.20;99.90;;;;;;4190133;28;20086;-52
2022/01/06 02:03:58;;;;;;;7.17;3.63;;;7.20;99.90;;;;;;4189043;28;20385;-55
2022/01/06 02:05:59;;;;;;;4.63;3.60;;;7.20;99.90;;;;;;4190007;28;20040;-57
2022/01/06 02:08:01;;;;;;;4.20;3.63;;;7.20;99.90;;;;;;4189146;28;20036;-56
2022/01/06 02:10:07;;;;;;;3.00;2.50;;;7.20;99.90;;;;;;4190119;28;20504;-55
2022/01/06 02:12:10;;;;;;;3.37;2.60;;;7.20;99.90;;;;;;4189059;28;20849;-56
2022/01/06 02:14:11;;;;;;;3.37;2.57;;;7.20;99.90;;;;;;4190352;28;20090;-49
2022/01/06 02:16:12;;;;;;;3.20;2.50;;;7.20;99.90;;;;;;4189252;28;20032;-56
2022/01/06 02:18:13;;;;;;;3.97;2.50;;;7.20;99.90;;;;;;4189894;28;20835;-54
2022/01/06 02:20:17;;;;;;;3.17;2.53;;;7.20;99.90;;;;;;4188933;28;20056;-55
2022/01/06 02:22:18;;;;;;;3.53;2.93;;;7.20;99.90;;;;;;4191676;28;20086;-50
2022/01/06 02:24:19;;;;;;;5.80;3.17;;;7.20;99.90;;;;;;4191908;28;20041;-56
2022/01/06 02:26:20;;;;;;;4.77;3.17;;;7.20;99.90;;;;;;4192509;28;20098;-54
2022/01/06 02:28:25;;;;;;;4.53;3.13;;;7.20;99.90;;;;;;4192385;28;20121;-56
2022/01/06 02:30:27;;;;;;;4.93;3.30;;;7.20;99.90;;;;;;4191996;28;20032;-56
2022/01/06 02:32:28;;;;;;;6.97;4.17;;;7.10;99.90;;;;;;4192551;28;20423;-56
2022/01/06 02:34:29;;;;;;;4.50;3.17;;;7.10;99.90;;;;;;4191774;28;20071;-56
2022/01/06 02:36:30;;;;;;;7.93;3.50;;;7.00;99.90;;;;;;4193182;28;20054;-56
2022/01/06 02:38:32;;;;;;;5.83;3.20;;;7.00;99.90;;;;;;4190888;28;20066;-51
2022/01/06 02:40:33;;;;;;;4.93;3.40;;;7.00;99.90;;;;;;4193097;28;20044;-54
2022/01/06 02:42:35;;;;;;;5.33;2.73;;;6.90;99.90;;;;;;4191496;28;20481;-56
2022/01/06 02:44:37;;;;;;;4.43;3.20;;;6.90;99.90;;;;;;4192434;28;20567;-54
2022/01/06 02:46:40;;;;;;;3.73;2.73;;;6.90;99.90;;;;;;4191611;28;20101;-58
2022/01/06 02:48:41;;;;;;;3.23;2.53;;;6.90;99.90;;;;;;4192676;28;20122;-51
2022/01/06 02:50:45;;;;;;;5.43;2.50;;;6.90;99.90;;;;;;4191320;28;20036;-55
2022/01/06 02:52:46;;;;;;;3.00;2.40;;;6.90;99.90;;;;;;4192892;28;20044;-51
2022/01/06 02:54:47;;;;;;;3.43;2.37;;;6.80;99.90;;;;;;4191437;28;20028;-52
2022/01/06 02:56:48;;;;;;;4.53;2.90;;;6.80;99.90;;;;;;4192011;28;20028;-52
2022/01/06 02:58:49;;;;;;;2.73;2.40;;;6.80;99.90;;;;;;4191709;28;20040;-51
2022/01/06 03:00:50;;;;;;;2.87;2.20;;;6.80;99.90;;;;;;4191967;28;20424;-58
2022/01/06 03:02:52;;;;;;;4.37;2.43;;;6.80;99.90;;;;;;4191781;28;20469;-54
2022/01/06 03:04:53;;;;;;;3.70;2.37;;;6.90;99.90;;;;;;4191194;28;20040;-55
2022/01/06 03:06:54;;;;;;;2.93;2.50;;;6.90;99.90;;;;;;4192085;28;20041;-57
2022/01/06 03:08:55;;;;;;;3.40;1.93;;;7.00;99.90;;;;;;4190896;28;20040;-52
2022/01/06 03:10:57;;;;;;;3.70;2.67;;;7.00;99.90;;;;;;4193134;28;20098;-55
2022/01/06 03:12:58;;;;;;;8.23;2.50;;;7.00;99.90;;;;;;4190608;28;20024;-53
2022/01/06 03:15:01;;;;;;;3.03;2.70;;;6.90;99.90;;;;;;4192372;28;20478;-56
2022/01/06 03:17:02;;;;;;;3.13;2.20;;;6.90;99.90;;;;;;4191149;28;20024;-59
2022/01/06 03:19:03;;;;;;;5.77;3.00;;;6.90;99.90;;;;;;4192699;28;20544;-54
2022/01/06 03:21:04;;;;;;;4.87;3.13;;;6.90;99.90;;;;;;4190425;28;20048;-57
2022/01/06 03:23:05;;;;;;;4.63;3.00;;;6.90;99.90;;;;;;4192412;28;20040;-55
2022/01/06 03:25:08;;;;;;;9.00;4.17;;;6.80;99.90;;;;;;4191042;28;20047;-55
2022/01/06 03:27:09;;;;;;;6.60;3.97;;;6.80;99.90;;;;;;4191999;28;20053;-55
2022/01/06 03:29:10;;;;;;;5.43;3.90;;;6.90;99.90;;;;;;4191311;28;20094;-61
2022/01/06 03:31:11;;;;;;;5.27;3.83;;;6.80;99.90;;;;;;4192229;28;20786;-56
2022/01/06 03:33:12;;;;;;;5.83;4.23;;;6.90;99.90;;;;;;4191207;28;20020;-56
2022/01/06 03:35:17;;;;;;;7.27;4.47;;;6.80;99.90;;;;;;4191126;28;20503;-55
2022/01/06 03:37:18;;;;;;;7.10;4.30;;;6.70;99.90;;;;;;4191389;28;20532;-50
2022/01/06 03:39:20;;;;;;;7.47;4.03;;;6.70;99.90;;;;;;4191089;28;20029;-52
2022/01/06 03:41:21;;;;;;;7.10;4.63;;;6.70;99.90;;;;;;4192106;28;20048;-57
2022/01/06 03:43:22;;;;;;;9.27;5.40;;;6.70;99.90;;;;;;4190250;28;20033;-54
2022/01/06 03:45:23;;;;;;;8.80;5.10;;;6.70;99.90;;;;;;4191743;28;20859;-52
2022/01/06 03:47:24;;;;;;;7.73;5.00;;;6.70;99.90;;;;;;4190490;28;20049;-55
2022/01/06 03:49:25;;;;;;;9.67;4.87;;;6.70;99.90;;;;;;4191752;28;20036;-53
2022/01/06 03:51:27;;;;;;;10.50;5.37;;;6.70;99.90;;;;;;4190584;28;20036;-52
2022/01/06 03:53:29;;;;;;;7.87;5.27;;;6.60;99.90;;;;;;4191710;28;20109;-54
2022/01/06 03:55:30;;;;;;;6.80;4.47;;;6.60;99.90;;;;;;4190697;28;20044;-52
2022/01/06 03:57:31;;;;;;;9.10;5.77;;;6.60;99.90;;;;;;4191524;28;20086;-56
2022/01/06 03:59:32;;;;;;;5.67;4.60;;;6.60;99.90;;;;;;4189987;28;20040;-54
2022/01/06 04:01:34;;;;;;;9.33;4.30;;;6.50;99.90;;;;;;4190811;28;20060;-58
2022/01/06 04:03:35;;;;;;;8.27;5.00;;;6.50;99.90;;;;;;4190380;28;20074;-61
2022/01/06 04:05:36;;;;;;;7.50;4.73;;;6.50;99.90;;;;;;4190482;28;20032;-56
2022/01/06 04:07:39;;;;;;;6.13;4.43;;;6.50;99.90;;;;;;4191048;28;20028;-54
2022/01/06 04:09:40;;;;;;;7.73;4.83;;;6.50;99.90;;;;;;4190258;28;20554;-56
2022/01/06 04:11:41;;;;;;;6.73;4.50;;;6.50;99.90;;;;;;4191288;28;20546;-52
2022/01/06 04:13:43;;;;;;;7.17;4.43;;;6.60;99.90;;;;;;4189962;28;20045;-55
2022/01/06 04:15:45;;;;;;;6.70;4.17;;;6.60;99.90;;;;;;4191168;28;20422;-53
2022/01/06 04:17:46;;;;;;;7.57;4.20;;;6.60;99.90;;;;;;4190061;28;20033;-53
2022/01/06 04:19:47;;;;;;;5.73;3.97;;;6.60;99.90;;;;;;4191585;28;20037;-51
2022/01/06 04:21:48;;;;;;;5.50;4.37;;;6.70;99.90;;;;;;4189986;28;20044;-54
2022/01/06 04:23:49;;;;;;;5.13;4.60;;;6.60;99.90;;;;;;4191297;28;20098;-55
2022/01/06 04:25:51;;;;;;;7.00;4.30;;;6.60;99.90;;;;;;4189809;28;20049;-61
2022/01/06 04:27:52;;;;;;;6.03;4.30;;;6.60;99.90;;;;;;4190588;28;20114;-52
2022/01/06 04:29:53;;;;;;;4.37;3.40;;;6.60;99.90;;;;;;4189517;28;20354;-58
2022/01/06 04:31:54;;;;;;;7.00;3.80;;;6.60;99.90;;;;;;4190387;28;20102;-56
2022/01/06 04:33:55;;;;;;;4.33;3.70;;;6.60;99.90;;;;;;4190400;28;20477;-54
2022/01/06 04:35:56;;;;;;;5.37;3.63;;;6.60;99.90;;;;;;4190421;28;20045;-54
2022/01/06 04:37:57;;;;;;;7.37;4.17;;;6.70;99.90;;;;;;4190598;28;20530;-56
2022/01/06 04:39:59;;;;;;;4.13;3.33;;;6.70;99.90;;;;;;4189651;28;20036;-54
2022/01/06 04:42:00;;;;;;;5.00;3.60;;;6.60;99.90;;;;;;4191305;28;20049;-56
2022/01/06 04:44:01;;;;;;;6.63;3.97;;;6.60;99.90;;;;;;4189487;28;20086;-54
2022/01/06 04:46:02;;;;;;;4.17;3.27;;;6.70;99.90;;;;;;4190430;28;20516;-55
2022/01/06 04:48:03;;;;;;;8.20;5.17;;;6.60;99.90;;;;;;4189147;28;20098;-57
2022/01/06 04:50:05;;;;;;;16.03;8.47;;;6.60;99.90;;;;;;4190758;28;20048;-55
2022/01/06 04:52:07;;;;;;;13.63;6.93;;;6.60;99.90;;;;;;4189392;28;20086;-58
2022/01/06 04:54:08;;;;;;;10.80;6.27;;;6.60;99.90;;;;;;4190927;28;20480;-54
2022/01/06 04:56:09;;;;;;;7.63;5.33;;;6.60;99.90;;;;;;4189431;28;20044;-60
2022/01/06 04:58:10;;;;;;;8.03;5.60;;;6.60;99.90;;;;;;4190485;28;20105;-56
2022/01/06 05:00:13;;;;;;;6.67;4.80;;;6.50;99.90;;;;;;4189060;28;20029;-61
2022/01/06 05:02:14;;;;;;;7.80;5.23;;;6.50;99.90;;;;;;4190118;28;20048;-59
2022/01/06 05:04:15;;;;;;;7.90;5.63;;;6.50;99.90;;;;;;4189860;28;20040;-61
2022/01/06 05:06:16;;;;;;;8.27;5.43;;;6.40;99.90;;;;;;4190016;28;20391;-54
2022/01/06 05:08:17;;;;;;;7.87;5.17;;;6.40;99.90;;;;;;4189987;28;20032;-58
2022/01/06 05:10:18;;;;;;;9.60;5.53;;;6.40;99.90;;;;;;4189322;28;20377;-57
2022/01/06 05:12:20;;;;;;;11.37;6.70;;;6.40;99.90;;;;;;4190447;28;20040;-54
2022/01/06 05:14:21;;;;;;;10.30;7.20;;;6.40;99.90;;;;;;4189430;28;20500;-55
2022/01/06 05:16:22;;;;;;;13.20;7.53;;;6.30;99.90;;;;;;4190716;28;20563;-55
2022/01/06 05:18:23;;;;;;;10.47;7.53;;;6.30;99.90;;;;;;4189047;28;20542;-57
2022/01/06 05:20:25;;;;;;;7.33;5.43;;;6.30;99.90;;;;;;4190395;28;20048;-56
2022/01/06 05:22:28;;;;;;;7.67;5.50;;;6.40;99.90;;;;;;4188644;28;20114;-57
2022/01/06 05:24:30;;;;;;;7.60;5.77;;;6.40;99.90;;;;;;4190661;28;20763;-57
2022/01/06 05:26:31;;;;;;;8.67;5.77;;;6.30;99.90;;;;;;4188723;28;20052;-55
2022/01/06 05:28:32;;;;;;;8.97;6.13;;;6.30;99.90;;;;;;4190370;28;20037;-57
2022/01/06 05:30:33;;;;;;;9.07;6.03;;;6.30;99.90;;;;;;4188433;28;20032;-54
2022/01/06 05:32:34;;;;;;;13.20;8.27;;;6.30;99.90;;;;;;4189525;28;20074;-58
2022/01/06 05:34:35;;;;;;;10.37;7.03;;;6.30;99.90;;;;;;4188867;28;20036;-54
2022/01/06 05:36:37;;;;;;;7.77;6.37;;;6.30;99.90;;;;;;4187831;28;20078;-55
2022/01/06 05:38:38;;;;;;;7.87;6.00;;;6.30;99.90;;;;;;4189766;28;20033;-52
2022/01/06 05:40:39;;;;;;;8.57;5.80;;;6.30;99.90;;;;;;4189250;28;20079;-58
2022/01/06 05:42:41;;;;;;;8.30;5.77;;;6.30;99.90;;;;;;4190436;28;20452;-54
2022/01/06 05:44:42;;;;;;;9.03;6.27;;;6.30;99.90;;;;;;4188608;28;20032;-51
2022/01/06 05:46:45;;;;;;;11.80;6.50;;;6.30;99.90;;;;;;4190004;28;20114;-56
2022/01/06 05:48:47;;;;;;;8.77;6.30;;;6.30;99.90;;;;;;4188246;28;20388;-52
2022/01/06 05:50:48;;;;;;;9.90;6.93;;;6.30;99.90;;;;;;4190517;28;20086;-53
2022/01/06 05:52:50;;;;;;;9.17;5.67;;;6.40;99.90;;;;;;4189174;28;20084;-56
2022/01/06 05:54:51;;;;;;;9.17;6.03;;;6.40;99.90;;;;;;4190341;28;20554;-54
2022/01/06 05:56:52;;;;;;;11.37;6.67;;;6.40;99.90;;;;;;4189454;28;20078;-51
2022/01/06 05:58:53;;;;;;;8.43;5.47;;;6.40;99.90;;;;;;4192664;28;20053;-56
2022/01/06 06:00:55;;;;;;;9.37;5.67;;;6.40;99.90;;;;;;4191677;28;20439;-51
2022/01/06 06:02:56;;;;;;;8.83;5.40;;;6.40;99.90;;;;;;4192494;28;20040;-56
2022/01/06 06:04:57;;;;;;;9.27;5.60;;;6.40;99.90;;;;;;4189125;28;20480;-56
2022/01/06 06:06:59;;;;;;;8.27;5.50;;;6.40;99.90;;;;;;4189664;28;20075;-53
2022/01/06 06:09:00;;;;;;;7.83;5.60;;;6.40;99.90;;;;;;4192450;28;20082;-53
2022/01/06 06:11:01;;;;;;;7.53;5.53;;;6.40;99.90;;;;;;4188181;28;20597;-52
2022/01/06 06:13:03;;;;;;;8.17;5.60;;;6.40;99.90;;;;;;4192969;28;20169;-53
2022/01/06 06:15:04;;;;;;;10.93;7.47;;;6.40;99.90;;;;;;4192259;28;20020;-56
2022/01/06 06:17:05;;;;;;;11.57;7.37;;;6.40;99.90;;;;;;4193111;28;20028;-56
2022/01/06 06:19:07;;;;;;;11.57;7.27;;;6.40;99.90;;;;;;4191844;28;20048;-52
2022/01/06 06:21:08;;;;;;;9.37;6.40;;;6.40;99.90;;;;;;4193110;28;20052;-54
2022/01/06 06:23:09;;;;;;;8.70;5.50;;;6.30;99.90;;;;;;4191735;28;20098;-59
2022/01/06 06:25:11;;;;;;;10.87;6.43;;;6.30;99.90;;;;;;4192298;28;20762;-52
2022/01/06 06:27:12;;;;;;;10.83;5.93;;;6.20;99.90;;;;;;4190234;28;20040;-55
2022/01/06 06:29:13;;;;;;;13.53;8.07;;;6.20;99.90;;;;;;4192810;28;20037;-51
2022/01/06 06:31:14;;;;;;;11.67;8.30;;;6.20;99.90;;;;;;4185775;28;20040;-55
2022/01/06 06:33:15;;;;;;;14.87;8.20;;;6.30;99.90;;;;;;4191214;28;20040;-53
2022/01/06 06:35:17;;;;;;;11.73;7.73;;;6.30;99.90;;;;;;4191219;28;20244;-55
2022/01/06 06:37:18;;;;;;;14.93;7.70;;;6.30;99.90;;;;;;4191574;28;20029;-53
2022/01/06 06:39:19;;;;;;;12.20;7.50;;;6.30;99.90;;;;;;4191980;28;20530;-56
2022/01/06 06:41:20;;;;;;;13.57;8.17;;;6.30;99.90;;;;;;4192558;28;20036;-53
2022/01/06 06:43:21;;;;;;;11.03;6.80;;;6.30;99.90;;;;;;4192515;28;20431;-57
2022/01/06 06:45:23;;;;;;;11.27;6.73;;;6.30;99.90;;;;;;4191367;28;20074;-54
2022/01/06 06:47:24;;;;;;;14.03;7.10;;;6.30;99.90;;;;;;4192851;28;20054;-57
2022/01/06 06:49:25;;;;;;;17.67;9.67;;;6.20;99.90;;;;;;4191564;28;20049;-51
2022/01/06 06:51:27;;;;;;;25.60;12.53;;;6.20;99.90;;;;;;4192625;28;20028;-59
2022/01/06 06:53:28;;;;;;;23.67;12.13;;;6.20;99.90;;;;;;4182561;28;20049;-55
2022/01/06 06:55:30;;;;;;;26.60;14.03;;;6.20;99.90;;;;;;4185969;28;20093;-55
2022/01/06 06:57:31;;;;;;;19.00;10.53;;;6.20;99.90;;;;;;4190814;28;20094;-57
2022/01/06 06:59:32;;;;;;;12.87;8.43;;;6.20;99.90;;;;;;4192132;28;20416;-56
2022/01/06 07:01:33;;;;;;;13.87;7.63;;;6.20;99.90;;;;;;4190537;28;20040;-54
2022/01/06 07:03:34;;;;;;;11.87;6.87;;;6.20;99.90;;;;;;4191785;28;20096;-51
2022/01/06 07:05:35;;;;;;;12.00;7.40;;;6.20;99.90;;;;;;4189899;28;20111;-56
2022/01/06 07:07:36;;;;;;;9.10;6.33;;;6.20;99.90;;;;;;4191407;28;20081;-51
2022/01/06 07:09:38;;;;;;;9.83;7.13;;;6.20;99.90;;;;;;4191356;28;20142;-56
2022/01/06 07:11:39;;;;;;;9.83;6.40;;;6.20;99.90;;;;;;4191785;28;20040;-59
2022/01/06 07:13:40;;;;;;;9.60;6.73;;;6.20;99.90;;;;;;4191165;28;20049;-54
2022/01/06 07:15:41;;;;;;;12.50;7.33;;;6.20;99.90;;;;;;4189377;28;20382;-56
2022/01/06 07:17:43;;;;;;;11.20;7.03;;;6.20;99.90;;;;;;4191995;28;20090;-50
2022/01/06 07:19:44;;;;;;;12.70;7.60;;;6.10;99.90;;;;;;4190163;28;20032;-53
2022/01/06 07:21:45;;;;;;;14.90;8.30;;;6.10;99.90;;;;;;4192554;28;20048;-58
2022/01/06 07:23:46;;;;;;;12.20;8.50;;;6.10;99.90;;;;;;4190901;28;20369;-55
2022/01/06 07:25:47;;;;;;;12.90;7.07;;;6.20;99.90;;;;;;4191949;28;20045;-52
2022/01/06 07:27:49;;;;;;;11.67;7.00;;;6.10;99.90;;;;;;4190853;28;20036;-52
2022/01/06 07:29:50;;;;;;;11.50;8.07;;;6.10;99.90;;;;;;4192049;28;20389;-53
2022/01/06 07:31:51;;;;;;;13.37;7.63;;;6.10;99.90;;;;;;4190692;28;20021;-61
2022/01/06 07:33:52;;;;;;;12.57;7.57;;;6.20;99.90;;;;;;4191567;28;20117;-53
2022/01/06 07:35:53;;;;;;;13.77;8.07;;;6.10;99.90;;;;;;4190634;28;20059;-53
2022/01/06 07:37:54;;;;;;;30.33;13.80;;;6.10;99.90;;;;;;4191388;28;20052;-67
2022/01/06 07:39:55;;;;;;;19.43;10.47;;;6.10;99.90;;;;;;4174508;28;20025;-57
2022/01/06 07:41:58;;;;;;;19.67;11.20;;;6.10;99.90;;;;;;4175284;28;20053;-56
2022/01/06 07:43:59;;;;;;;13.53;7.33;;;6.00;99.90;;;;;;4174684;28;20102;-51
2022/01/06 07:46:00;;;;;;;14.27;7.90;;;6.00;99.90;;;;;;4174261;28;20033;-60
2022/01/06 07:48:04;;;;;;;15.40;7.27;;;5.90;99.90;;;;;;4177308;28;20032;-53
2022/01/06 07:50:05;;;;;;;8.67;5.73;;;5.90;99.90;;;;;;4190176;28;20190;-54
2022/01/06 07:52:07;;;;;;;10.23;5.33;;;5.90;99.90;;;;;;4191539;28;21684;-56
2022/01/06 07:54:08;;;;;;;11.77;7.80;;;5.80;99.90;;;;;;4190383;28;20066;-54
2022/01/06 07:56:09;;;;;;;7.43;5.90;;;5.80;99.90;;;;;;4191397;28;20028;-48
2022/01/06 07:58:10;;;;;;;6.13;4.43;;;5.70;99.90;;;;;;4189741;28;20044;-57
2022/01/06 08:00:12;;;;;;;7.30;4.73;;;5.60;99.90;;;;;;4190357;28;20040;-55
2022/01/06 08:02:14;;;;;;;6.67;4.13;;;5.50;99.90;;;;;;4188719;28;20346;-60
2022/01/06 08:04:15;;;;;;;6.00;3.90;;;5.40;99.90;;;;;;4190655;28;20469;-52
2022/01/06 08:06:17;;;;;;;7.57;4.37;;;5.30;99.90;;;;;;4190221;28;20071;-56
2022/01/06 08:08:18;;;;;;;8.53;4.70;;;5.20;99.90;;;;;;4189427;28;20442;-57
2022/01/06 08:10:20;;;;;;;9.97;5.67;;;5.00;99.90;;;;;;4188944;28;20037;-51
2022/01/06 08:12:21;;;;;;;9.30;5.40;;;4.90;99.90;;;;;;4189883;28;20358;-56
2022/01/06 08:14:23;;;;;;;6.53;4.13;;;4.90;99.90;;;;;;4190519;28;20343;-69
2022/01/06 08:16:24;;;;;;;5.43;3.73;;;4.80;99.90;;;;;;4190051;28;20331;-60
2022/01/06 08:18:25;;;;;;;9.43;4.87;;;4.70;99.90;;;;;;4190309;28;20287;-55
2022/01/06 08:20:26;;;;;;;4.13;3.33;;;4.70;99.90;;;;;;4189387;28;20327;-60
2022/01/06 08:22:30;;;;;;;3.00;2.23;;;4.70;99.90;;;;;;4190151;28;20390;-53
2022/01/06 08:24:33;;;;;;;3.37;2.30;;;4.70;99.90;;;;;;4188303;28;20273;-59
2022/01/06 08:26:34;;;;;;;5.80;3.60;;;4.70;99.90;;;;;;4190733;28;20359;-58
2022/01/06 08:28:35;;;;;;;7.33;4.97;;;4.70;99.90;;;;;;4189531;28;20290;-52
2022/01/06 08:30:36;;;;;;;5.13;3.47;;;4.70;99.90;;;;;;4190892;28;20269;-60
2022/01/06 08:32:37;;;;;;;10.93;6.30;;;4.70;99.90;;;;;;4189501;28;20355;-58
2022/01/06 08:34:38;;;;;;;7.33;4.27;;;4.80;99.90;;;;;;4189557;28;20294;-56
2022/01/06 08:36:39;;;;;;;5.87;3.70;;;4.80;99.90;;;;;;4189647;28;20323;-53
2022/01/06 08:38:41;;;;;;;5.10;2.93;;;4.80;99.90;;;;;;4190835;28;20274;-62
2022/01/06 08:40:43;;;;;;;2.90;1.43;;;4.70;99.90;;;;;;4189592;28;20269;-56
2022/01/06 08:42:46;;;;;;;1.83;1.10;;;4.80;99.90;;;;;;4190168;28;20735;-55
2022/01/06 08:44:47;;;;;;;6.47;3.67;;;4.80;99.90;;;;;;4189032;28;20700;-63
2022/01/06 08:46:48;;;;;;;9.03;5.70;;;4.70;99.90;;;;;;4188415;28;20315;-63
2022/01/06 08:48:49;;;;;;;10.23;3.60;;;4.80;99.90;;;;;;4189581;28;20269;-57
2022/01/06 08:50:50;;;;;;;357.77;188.67;;;4.80;99.90;;;;;;4189379;28;20327;-57
2022/01/06 08:52:52;;;;;;;54.47;24.60;;;4.90;99.90;;;;;;4190138;28;20334;-58
2022/01/06 08:54:53;;;;;;;1433.77;578.40;;;4.90;99.90;;;;;;4188355;28;20266;-57
2022/01/06 08:56:54;;;;;;;58.63;27.17;;;4.90;99.90;;;;;;4190513;28;20330;-63
2022/01/06 08:58:55;;;;;;;20.87;9.47;;;5.00;99.90;;;;;;4189193;28;20680;-59
2022/01/06 09:00:57;;;;;;;9.73;5.00;;;5.00;99.90;;;;;;4190137;28;20273;-66
2022/01/06 09:02:58;;;;;;;3.73;1.87;;;5.00;99.90;;;;;;4189308;28;20350;-56
2022/01/06 09:05:02;;;;;;;1.90;1.50;;;5.10;99.90;;;;;;4190767;28;20269;-54
2022/01/06 09:07:04;;;;;;;2.80;1.63;;;5.00;99.90;;;;;;4189511;28;20284;-62
2022/01/06 09:09:05;;;;;;;1.63;1.27;;;5.00;99.90;;;;;;4190457;28;20803;-60
2022/01/06 09:11:06;;;;;;;1.47;1.07;;;5.10;99.90;;;;;;4189011;28;20319;-61
2022/01/06 09:13:08;;;;;;;2.10;1.47;;;5.10;99.90;;;;;;4190716;28;20273;-57
2022/01/06 09:15:09;;;;;;;18.20;9.80;;;5.10;99.90;;;;;;4189592;28;20595;-57
2022/01/06 09:17:11;;;;;;;4.57;2.33;;;5.10;99.90;;;;;;4188706;28;20315;-59
2022/01/06 09:19:13;;;;;;;3.57;1.10;;;5.20;99.90;;;;;;4189826;28;20261;-60
2022/01/06 09:21:14;;;;;;;3.10;1.33;;;5.20;99.90;;;;;;4189827;28;20262;-57
2022/01/06 09:23:15;;;;;;;3.57;2.00;;;5.20;99.90;;;;;;4190078;28;21625;-59
2022/01/06 09:25:17;;;;;;;1.87;1.17;;;5.30;99.90;;;;;;4188903;28;20726;-61
2022/01/06 09:27:18;;;;;;;1.53;1.10;;;5.30;99.90;;;;;;4190328;28;20278;-60
2022/01/06 09:29:19;;;;;;;1.77;1.60;;;5.30;99.90;;;;;;4188923;28;20680;-58
2022/01/06 09:31:20;;;;;;;2.60;2.00;;;5.20;99.90;;;;;;4192181;28;20277;-57
2022/01/06 09:33:22;;;;;;;11.53;5.97;;;5.30;99.90;;;;;;4192308;28;20753;-56
2022/01/06 09:35:24;;;;;;;4.00;2.33;;;5.30;99.90;;;;;;4193795;28;20355;-60
2022/01/06 09:37:25;;;;;;;3.90;2.03;;;5.30;99.90;;;;;;4191916;28;20326;-58
2022/01/06 09:39:27;;;;;;;2.73;2.47;;;5.30;99.90;;;;;;4191898;28;20604;-57
2022/01/06 09:41:29;;;;;;;2.30;1.90;;;5.30;99.90;;;;;;4191049;28;20315;-62
2022/01/06 09:43:32;;;;;;;2.73;1.50;;;5.30;99.90;;;;;;4193323;28;20286;-62
2022/01/06 09:45:35;;;;;;;2.03;1.30;;;5.30;99.90;;;;;;4191202;28;20701;-62
2022/01/06 09:47:37;;;;;;;1.87;1.03;;;5.30;99.90;;;;;;4193617;28;20319;-64
2022/01/06 09:49:40;;;;;;;2.60;1.43;;;5.20;99.90;;;;;;4192685;28;20815;-56
2022/01/06 09:51:41;;;;;;;1.73;1.00;;;5.20;99.90;;;;;;4190864;28;20285;-60
2022/01/06 09:53:42;;;;;;;3.40;1.00;;;5.10;99.90;;;;;;4192788;28;20897;-56
2022/01/06 09:55:43;;;;;;;2.47;1.30;;;5.20;99.90;;;;;;4192115;28;20311;-57
2022/01/06 09:58:04;;;;;;;2.93;1.40;;;5.20;99.90;;;;;;4193025;28;20362;-58
2022/01/06 10:00:08;;;;;;;1.80;0.80;;;5.20;99.90;;;;;;4174948;28;20296;-58
2022/01/06 10:02:16;;;;;;;0.90;0.50;;;5.20;99.90;;;;;;4177511;28;20793;-60
2022/01/06 10:04:27;;;;;;;1.63;0.80;;;5.10;99.90;;;;;;4190932;28;20358;-53
2022/01/06 10:06:28;;;;;;;1.38;0.50;;;5.10;99.90;;;;;;4190458;28;20285;-60
2022/01/06 10:08:30;;;;;;;0.53;0.23;;;5.10;99.90;;;;;;4192299;28;20044;-56
2022/01/06 10:10:31;;;;;;;0.40;0.40;;;5.10;99.90;;;;;;4191785;28;20278;-56
2022/01/06 10:12:32;;;;;;;1.13;0.57;;;5.10;99.90;;;;;;4191529;28;20285;-51
2022/01/06 10:14:41;;;;;;;1.10;1.00;;;5.10;99.90;;;;;;4191653;28;20281;-56
2022/01/06 10:16:45;;;;;;;1.07;0.50;;;5.10;99.90;;;;;;4190376;28;20335;-55
2022/01/06 10:19:00;;;;;;;1.30;0.87;;;5.10;99.90;;;;;;4192517;28;20289;-54
2022/01/06 10:21:12;;;;;;;0.50;0.33;;;5.20;99.90;;;;;;4191274;28;21017;-56
2022/01/06 10:23:15;;;;;;;2.33;0.83;;;5.10;99.90;;;;;;4192478;28;20294;-49
2022/01/06 10:25:18;;;;;;;2.33;1.30;;;5.10;99.90;;;;;;4189850;28;20358;-57
2022/01/06 10:27:20;;;;;;;1.80;1.23;;;5.10;99.90;;;;;;4192714;28;20277;-57
2022/01/06 10:29:25;;;;;;;1.37;0.80;;;5.10;99.90;;;;;;4191405;28;20346;-56
2022/01/06 10:31:29;;;;;;;2.70;0.60;;;5.10;99.90;;;;;;4190029;28;20277;-56
2022/01/06 10:33:40;;;;;;;2.03;1.00;;;5.10;99.90;;;;;;4191483;28;20343;-54
2022/01/06 10:35:41;;;;;;;1.50;0.98;;;5.10;99.90;;;;;;4191178;28;20357;-58
2022/01/06 10:37:44;;;;;;;1.87;0.83;;;5.10;99.90;;;;;;4191281;28;20630;-55
2022/01/06 10:39:47;;;;;;;0.87;0.60;;;5.10;99.90;;;;;;4190682;28;20312;-58
2022/01/06 10:41:48;;;;;;;0.87;0.60;;;5.10;99.90;;;;;;4190132;28;20415;-51
2022/01/06 10:43:55;;;;;;;0.97;0.70;;;5.10;99.90;;;;;;4178529;28;20314;-57
2022/01/06 10:46:03;;;;;;;1.73;0.60;;;5.10;99.90;;;;;;4190118;28;20314;-58
2022/01/06 10:48:05;;;;;;;1.30;1.00;;;5.20;99.90;;;;;;4191502;28;20326;-57